Ji-Parana, Brazil
Current Conditions -  °F | °C
As of 8:00 AM on Thursday 30 Oct 2014 (Local Time) from SBVH Reporting Station
Broken Clouds Broken Clouds  
Wind Chill: 73°   Ceiling: 8000
Heat Index: 73°   Visibility: 6mi
Dew Point: 72°   Wind: 7mph
Humidity: 94%   Direction: 350°N
Pressure: 29.91"   Gusts: NA
Location:  10.9°S, 61.95°W
Report Text: SBVH 301200Z 35006KT 9999 FEW020 BKN080 23/22 Q1013
Loading
Personal Weather Stations






























Interactive Weather Map
Tropical Storm Tracking
New forecast layout! Learn more

10-Day Weather Forecast

Advertisements
Track Severe Weather on mobile